Time;durP1;ratioP1;P1;durP2;ratioP2;P2;SDS_P1;SDS_P2;PMS_P1;PMS_P2;Temp;Humidity;BMP_temperature;BMP_pressure;BME280_temperature;BME280_humidity;BME280_pressure;Samples;Min_cycle;Max_cycle;Signal;HPM_P1;HPM_P2
2022/12/10 00:01:08;;;;;;;21.40;11.37;;;-0.50;99.90;;;;;;5001030;28;20323;-69
2022/12/10 00:03:34;;;;;;;21.47;12.37;;;-0.50;99.90;;;;;;5007544;28;20214;-69
2022/12/10 00:06:02;;;;;;;21.00;11.47;;;-0.40;99.90;;;;;;5008269;28;20204;-69
2022/12/10 00:08:28;;;;;;;20.73;12.37;;;-0.30;99.90;;;;;;5006300;28;20229;-69
2022/12/10 00:10:54;;;;;;;23.00;12.80;;;-0.30;99.90;;;;;;5003476;28;20212;-67
2022/12/10 00:13:19;;;;;;;23.13;12.67;;;-0.20;99.90;;;;;;5001665;28;20286;-69
2022/12/10 00:15:45;;;;;;;22.50;11.77;;;-0.30;99.90;;;;;;5005043;28;20321;-69
2022/12/10 00:18:10;;;;;;;25.53;13.23;;;-0.30;99.90;;;;;;5002727;28;20548;-69
2022/12/10 00:20:37;;;;;;;22.47;12.50;;;-0.40;99.90;;;;;;5001639;28;20246;-69
2022/12/10 00:23:04;;;;;;;22.03;12.20;;;-0.50;99.90;;;;;;5003145;28;20640;-69
2022/12/10 00:25:31;;;;;;;24.40;12.17;;;-0.40;99.90;;;;;;5004708;28;20722;-69
2022/12/10 00:27:56;;;;;;;23.30;13.37;;;-0.50;99.90;;;;;;5006632;28;20213;-69
2022/12/10 00:30:22;;;;;;;23.67;12.23;;;-0.50;99.90;;;;;;5002823;28;20269;-69
2022/12/10 00:32:48;;;;;;;27.53;14.40;;;-0.40;99.90;;;;;;5002537;28;20548;-69
2022/12/10 00:35:13;;;;;;;26.20;14.07;;;-0.40;99.90;;;;;;5004889;28;20322;-69
2022/12/10 00:37:39;;;;;;;25.53;12.70;;;-0.40;99.90;;;;;;5004332;28;20211;-67
2022/12/10 00:40:05;;;;;;;24.33;12.50;;;-0.50;99.90;;;;;;4998700;28;20261;-69
2022/12/10 00:42:31;;;;;;;25.50;13.50;;;-0.40;99.90;;;;;;5003313;28;20212;-69
2022/12/10 00:44:56;;;;;;;25.57;12.70;;;-0.50;99.90;;;;;;5006515;28;20302;-70
2022/12/10 00:47:22;;;;;;;24.53;13.03;;;-0.60;99.90;;;;;;5007252;28;20204;-69
2022/12/10 00:49:47;;;;;;;27.67;14.07;;;-0.60;99.90;;;;;;5003986;28;20206;-69
2022/12/10 00:52:13;;;;;;;23.77;12.97;;;-0.50;99.90;;;;;;5002397;28;20258;-70
2022/12/10 00:54:39;;;;;;;23.93;12.47;;;-0.50;99.90;;;;;;5001878;28;20697;-69
2022/12/10 00:57:04;;;;;;;22.37;11.43;;;-0.50;99.90;;;;;;5000006;28;20722;-68
2022/12/10 00:59:30;;;;;;;22.57;12.17;;;-0.40;99.90;;;;;;4999791;28;20210;-69
2022/12/10 01:01:55;;;;;;;24.90;13.33;;;-0.40;99.90;;;;;;5001068;28;20228;-70
2022/12/10 01:04:21;;;;;;;22.60;11.33;;;-0.50;99.90;;;;;;5002696;28;20197;-69
2022/12/10 01:06:52;;;;;;;23.47;12.20;;;-0.60;99.90;;;;;;5001693;28;20306;-69
2022/12/10 01:09:21;;;;;;;24.60;13.23;;;-0.60;99.90;;;;;;5001202;28;20176;-65
2022/12/10 01:11:48;;;;;;;21.33;12.13;;;-0.60;99.90;;;;;;5005827;28;20171;-68
2022/12/10 01:14:17;;;;;;;22.07;12.17;;;-0.70;99.90;;;;;;5000596;28;20200;-68
2022/12/10 01:16:44;;;;;;;22.13;11.13;;;-0.60;99.90;;;;;;5003813;28;20213;-69
2022/12/10 01:19:10;;;;;;;23.53;12.50;;;-0.60;99.90;;;;;;5001319;28;20218;-66
2022/12/10 01:21:36;;;;;;;22.87;12.03;;;-0.50;99.90;;;;;;5007181;28;20572;-68
2022/12/10 01:24:02;;;;;;;19.87;10.83;;;-0.50;99.90;;;;;;5001905;28;20256;-68
2022/12/10 01:26:31;;;;;;;22.67;11.97;;;-0.50;99.90;;;;;;5008450;28;20295;-68
2022/12/10 01:28:58;;;;;;;21.90;11.87;;;-0.50;99.90;;;;;;5000340;28;20684;-67
2022/12/10 01:31:30;;;;;;;21.83;12.23;;;-0.50;99.90;;;;;;4999183;28;20276;-67
2022/12/10 01:34:00;;;;;;;20.00;11.20;;;-0.50;99.90;;;;;;4998862;28;20218;-68
2022/12/10 01:36:29;;;;;;;21.00;11.83;;;-0.50;99.90;;;;;;5002410;28;20586;-69
2022/12/10 01:38:55;;;;;;;24.63;13.00;;;-0.50;99.90;;;;;;5004939;28;20177;-68
2022/12/10 01:41:21;;;;;;;22.90;12.83;;;-0.60;99.90;;;;;;5005966;28;20218;-68
2022/12/10 01:44:07;;;;;;;23.07;11.27;;;-0.60;99.90;;;;;;5004377;28;20716;-69
2022/12/10 01:46:38;;;;;;;20.43;11.37;;;-0.70;99.90;;;;;;4983321;28;20293;-70
2022/12/10 01:49:07;;;;;;;20.60;10.90;;;-0.60;99.90;;;;;;4999996;28;20205;-69
2022/12/10 01:51:35;;;;;;;22.27;12.03;;;-0.60;99.90;;;;;;4997190;28;20220;-69
2022/12/10 01:54:03;;;;;;;21.07;11.87;;;-0.60;99.90;;;;;;5003406;28;20546;-70
2022/12/10 01:56:35;;;;;;;21.20;11.43;;;-0.70;99.90;;;;;;5004045;28;20355;-66
2022/12/10 01:59:01;;;;;;;20.17;11.13;;;-0.70;99.90;;;;;;5003115;28;20254;-67
2022/12/10 02:01:40;;;;;;;20.20;11.37;;;-0.70;99.90;;;;;;5005061;28;20231;-69
2022/12/10 02:04:21;;;;;;;20.37;11.17;;;-0.60;99.90;;;;;;4999921;28;20250;-69
2022/12/10 02:07:06;;;;;;;21.57;11.20;;;-0.60;99.90;;;;;;5001540;28;20219;-69
2022/12/10 02:09:58;;;;;;;21.03;11.13;;;-0.60;99.90;;;;;;5001130;28;20265;-69
2022/12/10 02:12:47;;;;;;;19.30;11.30;;;-0.70;99.90;;;;;;5002146;28;20553;-70
2022/12/10 02:15:16;;;;;;;18.43;10.87;;;-0.80;99.90;;;;;;4995886;28;20236;-70
2022/12/10 02:17:58;;;;;;;19.37;10.47;;;-0.80;99.90;;;;;;5000475;28;20184;-69
2022/12/10 02:20:31;;;;;;;21.27;11.00;;;-0.80;99.90;;;;;;5007174;28;20211;-69
2022/12/10 02:23:02;;;;;;;19.87;11.77;;;-0.80;99.90;;;;;;5016796;28;20215;-69
2022/12/10 02:26:00;;;;;;;19.60;11.93;;;-0.80;99.90;;;;;;5004707;28;20706;-69
2022/12/10 02:28:46;;;;;;;22.83;12.73;;;-0.80;99.90;;;;;;4999593;28;20208;-70
2022/12/10 02:31:17;;;;;;;21.80;11.80;;;-0.80;99.90;;;;;;5000393;28;20303;-70
2022/12/10 02:33:48;;;;;;;20.50;11.77;;;-0.80;99.90;;;;;;5005055;28;20746;-68
2022/12/10 02:36:14;;;;;;;23.13;11.50;;;-0.90;99.90;;;;;;4998645;28;20214;-68
2022/12/10 02:38:41;;;;;;;22.87;12.73;;;-0.90;99.90;;;;;;5000922;28;20186;-68
2022/12/10 02:41:17;;;;;;;22.13;11.93;;;-0.80;99.90;;;;;;4999618;28;20216;-68
2022/12/10 02:43:50;;;;;;;24.73;13.17;;;-0.80;99.90;;;;;;5000334;28;20205;-68
2022/12/10 02:46:16;;;;;;;23.67;11.87;;;-0.80;99.90;;;;;;4999347;28;20266;-68
2022/12/10 02:48:42;;;;;;;25.50;13.60;;;-0.90;99.90;;;;;;5008487;28;20209;-68
2022/12/10 02:51:08;;;;;;;23.43;13.03;;;-0.90;99.90;;;;;;4998863;28;20188;-68
2022/12/10 02:53:33;;;;;;;22.90;12.67;;;-0.90;99.90;;;;;;5002385;28;20208;-68
2022/12/10 02:56:36;;;;;;;22.50;12.73;;;-0.90;99.90;;;;;;4998417;28;20214;-69
2022/12/10 02:59:02;;;;;;;21.93;12.33;;;-1.00;99.90;;;;;;4996103;28;20209;-68
2022/12/10 03:01:58;;;;;;;22.67;12.80;;;-1.00;99.90;;;;;;5006499;28;20736;-69
2022/12/10 03:04:46;;;;;;;28.57;13.07;;;-1.10;99.90;;;;;;4997061;28;20287;-68
2022/12/10 03:07:18;;;;;;;25.67;13.33;;;-1.10;99.90;;;;;;5003831;28;20217;-69
2022/12/10 03:10:01;;;;;;;22.43;12.87;;;-1.00;99.90;;;;;;5002118;28;20216;-71
2022/12/10 03:12:47;;;;;;;23.17;11.77;;;-0.90;99.90;;;;;;5002732;28;20646;-69
2022/12/10 03:15:15;;;;;;;21.87;13.00;;;-0.90;99.90;;;;;;5002541;28;20205;-68
2022/12/10 03:17:43;;;;;;;27.23;14.13;;;-0.90;99.90;;;;;;5005711;28;20682;-68
2022/12/10 03:20:12;;;;;;;23.60;13.27;;;-1.00;99.90;;;;;;5003023;28;20227;-68
2022/12/10 03:22:42;;;;;;;23.80;12.53;;;-1.10;99.90;;;;;;5002607;28;20212;-68
2022/12/10 03:25:10;;;;;;;25.80;13.57;;;-1.10;99.90;;;;;;5005466;28;20222;-69
2022/12/10 03:27:39;;;;;;;25.37;13.13;;;-1.10;99.90;;;;;;5003545;28;20216;-68
2022/12/10 03:30:05;;;;;;;27.47;14.03;;;-1.00;99.90;;;;;;5004840;28;20179;-69
2022/12/10 03:32:32;;;;;;;23.10;12.97;;;-1.00;99.90;;;;;;5009152;28;20299;-69
2022/12/10 03:34:59;;;;;;;25.53;14.00;;;-0.90;99.90;;;;;;5005959;28;20617;-69
2022/12/10 03:37:28;;;;;;;26.10;12.37;;;-0.90;99.90;;;;;;5005315;28;20210;-69
2022/12/10 03:39:54;;;;;;;23.53;11.87;;;-0.90;99.90;;;;;;5004882;28;20653;-68
2022/12/10 03:42:20;;;;;;;25.87;13.80;;;-0.90;99.90;;;;;;5002972;28;20205;-69
2022/12/10 03:44:50;;;;;;;23.43;12.00;;;-0.90;99.90;;;;;;5009036;28;20245;-69
2022/12/10 03:47:16;;;;;;;22.13;12.80;;;-1.00;99.90;;;;;;5008268;28;20203;-69
2022/12/10 03:49:42;;;;;;;22.00;12.17;;;-0.90;99.90;;;;;;5001962;28;20202;-69
2022/12/10 03:52:08;;;;;;;22.00;12.20;;;-0.80;99.90;;;;;;5002847;28;20206;-69
2022/12/10 03:54:33;;;;;;;26.10;13.47;;;-0.80;99.90;;;;;;5007437;28;20242;-68
2022/12/10 03:56:59;;;;;;;22.23;12.17;;;-0.80;99.90;;;;;;5002921;28;20186;-68
2022/12/10 03:59:25;;;;;;;25.27;14.13;;;-0.70;99.90;;;;;;5005506;28;20207;-68
2022/12/10 04:01:50;;;;;;;24.20;12.73;;;-0.70;99.90;;;;;;4999963;28;20218;-69
2022/12/10 04:04:16;;;;;;;25.47;13.00;;;-0.70;99.90;;;;;;5004898;28;20675;-69
2022/12/10 04:06:42;;;;;;;23.67;12.47;;;-0.70;99.90;;;;;;5004957;28;20207;-69
2022/12/10 04:09:10;;;;;;;23.43;12.60;;;-0.70;99.90;;;;;;5001768;28;20547;-69
2022/12/10 04:11:36;;;;;;;24.03;12.90;;;-0.80;99.90;;;;;;5007988;28;20697;-68
2022/12/10 04:16:46;;;;;;;22.90;12.70;;;-0.70;99.90;;;;;;5005590;28;20210;-69
2022/12/10 04:19:18;;;;;;;25.20;12.17;;;-0.70;99.90;;;;;;5008808;28;20209;-68
2022/12/10 04:27:25;;;;;;;26.23;13.77;;;-0.60;99.90;;;;;;5003291;28;20174;-69
2022/12/10 04:29:52;;;;;;;27.20;13.93;;;-0.70;99.90;;;;;;5002067;28;20641;-69
2022/12/10 04:32:18;;;;;;;24.60;13.60;;;-0.60;99.90;;;;;;5007143;28;20223;-69
2022/12/10 04:34:44;;;;;;;24.43;13.83;;;-0.60;99.90;;;;;;5006737;28;20220;-69
2022/12/10 04:37:13;;;;;;;22.10;12.53;;;-0.50;99.90;;;;;;5035107;22;20297;-69
2022/12/10 04:39:39;;;;;;;24.03;13.53;;;-0.50;99.90;;;;;;5031457;28;20219;-69
2022/12/10 04:42:06;;;;;;;23.63;12.43;;;-0.50;99.90;;;;;;5031116;28;20180;-69
2022/12/10 04:44:32;;;;;;;23.20;13.10;;;-0.50;99.90;;;;;;5029590;28;20258;-69
2022/12/10 04:46:58;;;;;;;25.07;12.63;;;-0.50;99.90;;;;;;5031915;28;20215;-69
2022/12/10 04:49:24;;;;;;;22.97;13.07;;;-0.50;99.90;;;;;;5029263;28;20235;-69
2022/12/10 04:51:50;;;;;;;21.27;11.40;;;-0.50;99.90;;;;;;5032281;28;20215;-69
2022/12/10 04:54:16;;;;;;;21.27;12.27;;;-0.50;99.90;;;;;;5031767;28;20175;-69
2022/12/10 04:56:42;;;;;;;24.03;12.23;;;-0.50;99.90;;;;;;5031194;28;20569;-68
2022/12/10 04:59:09;;;;;;;21.37;11.93;;;-0.50;99.90;;;;;;5031786;28;20649;-69
2022/12/10 05:01:35;;;;;;;29.08;17.27;;;-0.40;99.90;;;;;;5027441;28;20425;-69
2022/12/10 05:04:03;;;;;;;22.93;12.63;;;-0.40;99.90;;;;;;5030678;28;20211;-69
2022/12/10 05:06:29;;;;;;;22.17;13.60;;;-0.40;99.90;;;;;;5030581;28;20318;-70
2022/12/10 05:08:55;;;;;;;21.30;12.10;;;-0.40;99.90;;;;;;5031842;28;20174;-71
2022/12/10 05:11:23;;;;;;;24.00;12.97;;;-0.30;99.90;;;;;;5024275;28;20204;-70
2022/12/10 05:13:49;;;;;;;22.77;12.87;;;-0.30;99.90;;;;;;5027234;28;20208;-70
2022/12/10 05:16:17;;;;;;;25.70;13.33;;;-0.30;99.90;;;;;;5029691;28;20208;-70
2022/12/10 05:18:43;;;;;;;24.97;11.87;;;-0.30;99.90;;;;;;5025690;28;20207;-70
2022/12/10 05:21:13;;;;;;;24.00;12.40;;;-0.30;99.90;;;;;;5025354;28;20192;-71
2022/12/10 05:23:43;;;;;;;24.37;12.80;;;-0.30;99.90;;;;;;5031464;28;20178;-70
2022/12/10 05:26:14;;;;;;;20.93;11.93;;;-0.20;99.90;;;;;;5022686;28;20205;-71
2022/12/10 05:29:01;;;;;;;23.30;13.30;;;-0.20;99.90;;;;;;5028962;28;20208;-70
2022/12/10 05:31:29;;;;;;;20.67;11.40;;;-0.20;99.90;;;;;;5022162;28;20212;-70
2022/12/10 05:33:56;;;;;;;21.13;12.13;;;-0.20;99.90;;;;;;5026444;28;20240;-70
2022/12/10 05:36:24;;;;;;;21.77;11.67;;;-0.20;99.90;;;;;;5028972;28;20704;-70
2022/12/10 05:38:50;;;;;;;23.23;12.60;;;-0.20;99.90;;;;;;5023551;28;20177;-70
2022/12/10 05:41:22;;;;;;;22.57;12.57;;;-0.20;99.90;;;;;;5024364;28;20300;-70
2022/12/10 05:43:48;;;;;;;22.70;11.57;;;-0.30;99.90;;;;;;5030231;28;20621;-70
2022/12/10 05:46:19;;;;;;;20.57;12.07;;;-0.20;99.90;;;;;;5022170;28;20292;-70
2022/12/10 05:48:46;;;;;;;19.60;11.30;;;-0.20;99.90;;;;;;5028338;28;20210;-70
2022/12/10 05:51:15;;;;;;;20.83;11.37;;;-0.20;99.90;;;;;;5025528;28;20251;-70
2022/12/10 05:53:42;;;;;;;20.23;11.17;;;-0.20;99.90;;;;;;5026635;28;20176;-69
2022/12/10 05:56:13;;;;;;;17.97;10.80;;;-0.20;99.90;;;;;;5028645;28;20303;-70
2022/12/10 05:58:41;;;;;;;20.73;10.10;;;-0.20;99.90;;;;;;5023920;28;20206;-70
2022/12/10 06:01:18;;;;;;;19.67;10.97;;;-0.30;99.90;;;;;;5023728;28;20222;-70
2022/12/10 06:03:44;;;;;;;17.27;10.20;;;-0.20;99.90;;;;;;5029823;28;20686;-71
2022/12/10 06:06:11;;;;;;;17.97;11.10;;;-0.30;99.90;;;;;;5021511;28;20246;-70
2022/12/10 06:08:37;;;;;;;17.00;9.43;;;-0.30;99.90;;;;;;5020552;28;20188;-71
2022/12/10 06:11:07;;;;;;;15.00;9.70;;;-0.30;99.90;;;;;;5020001;28;20299;-70
2022/12/10 06:13:33;;;;;;;22.57;11.03;;;-0.20;99.90;;;;;;5024127;28;20205;-70
2022/12/10 06:15:59;;;;;;;18.70;10.27;;;-0.20;99.90;;;;;;5026591;28;20211;-70
2022/12/10 06:18:24;;;;;;;18.60;11.30;;;-0.30;99.90;;;;;;5027331;28;20544;-70
2022/12/10 06:20:50;;;;;;;16.60;10.17;;;-0.20;99.90;;;;;;5025440;28;20200;-70
2022/12/10 06:23:16;;;;;;;18.93;10.53;;;-0.20;99.90;;;;;;5027170;28;20211;-70
2022/12/10 06:25:42;;;;;;;17.23;9.67;;;-0.20;99.90;;;;;;5023568;28;20213;-70
2022/12/10 06:28:08;;;;;;;16.33;9.87;;;-0.20;99.90;;;;;;5024068;28;20218;-70
2022/12/10 06:30:34;;;;;;;19.33;10.37;;;-0.20;99.90;;;;;;5028456;28;20212;-70
2022/12/10 06:33:00;;;;;;;19.40;9.80;;;-0.20;99.90;;;;;;5021538;28;20171;-70
2022/12/10 06:35:26;;;;;;;15.47;10.33;;;-0.10;99.90;;;;;;5025954;28;20202;-70
2022/12/10 06:37:52;;;;;;;16.73;9.77;;;-0.10;99.90;;;;;;5028687;28;20245;-69
2022/12/10 06:40:18;;;;;;;17.33;9.80;;;-0.10;99.90;;;;;;5020717;28;20220;-70
2022/12/10 06:42:44;;;;;;;16.03;9.80;;;-0.10;99.90;;;;;;5027195;28;20847;-70
2022/12/10 06:45:10;;;;;;;18.00;10.47;;;-0.10;99.90;;;;;;5027239;28;20181;-70
2022/12/10 06:47:35;;;;;;;17.67;10.43;;;-0.10;99.90;;;;;;5025356;28;20286;-70
2022/12/10 06:50:02;;;;;;;20.07;10.37;;;-0.20;99.90;;;;;;5025947;28;20302;-71
2022/12/10 06:52:27;;;;;;;16.50;9.73;;;-0.20;99.90;;;;;;5023504;28;20216;-70
2022/12/10 06:54:54;;;;;;;18.10;10.13;;;-0.20;99.90;;;;;;5025072;28;20220;-70
2022/12/10 06:57:20;;;;;;;16.23;9.83;;;-0.20;99.90;;;;;;5027746;28;20229;-67
2022/12/10 06:59:46;;;;;;;14.00;9.00;;;-0.20;99.90;;;;;;5019398;28;20696;-66
2022/12/10 07:02:12;;;;;;;16.27;9.40;;;-0.20;99.90;;;;;;5024897;28;20211;-71
2022/12/10 07:04:37;;;;;;;17.47;10.47;;;-0.20;99.90;;;;;;5029391;28;20278;-69
2022/12/10 07:07:04;;;;;;;14.57;9.30;;;-0.20;99.90;;;;;;5020666;28;20214;-67
2022/12/10 07:09:31;;;;;;;16.63;9.77;;;-0.30;99.90;;;;;;5025615;28;20266;-69
2022/12/10 07:11:57;;;;;;;15.77;9.23;;;-0.30;99.90;;;;;;5028824;28;20252;-68
2022/12/10 07:14:23;;;;;;;13.00;8.90;;;-0.20;99.90;;;;;;5022639;28;20738;-69
2022/12/10 07:16:48;;;;;;;15.23;9.57;;;-0.30;99.90;;;;;;5027255;28;20618;-69
2022/12/10 07:19:14;;;;;;;16.37;9.20;;;-0.30;99.90;;;;;;5022250;28;20205;-67
2022/12/10 07:21:41;;;;;;;14.83;8.13;;;-0.30;99.90;;;;;;5024733;28;20247;-69
2022/12/10 07:24:10;;;;;;;14.07;9.47;;;-0.40;99.90;;;;;;5023379;28;20187;-69
2022/12/10 07:26:39;;;;;;;14.43;9.40;;;-0.30;99.90;;;;;;5020460;28;20219;-69
2022/12/10 07:29:06;;;;;;;12.70;8.73;;;-0.40;99.90;;;;;;5023599;28;20221;-69
2022/12/10 07:31:32;;;;;;;14.17;9.53;;;-0.30;99.90;;;;;;5028298;28;20210;-69
2022/12/10 07:33:58;;;;;;;14.73;9.90;;;-0.30;99.90;;;;;;5022576;28;20212;-68
2022/12/10 07:36:25;;;;;;;16.47;10.50;;;-0.30;99.90;;;;;;5027053;28;20769;-69
2022/12/10 07:38:52;;;;;;;16.63;10.23;;;-0.30;99.90;;;;;;5029309;28;20242;-68
2022/12/10 07:41:18;;;;;;;16.80;9.90;;;-0.30;99.90;;;;;;5020766;28;20243;-69
2022/12/10 07:43:45;;;;;;;15.77;10.23;;;-0.20;99.90;;;;;;5043654;28;20229;-69
2022/12/10 07:46:17;;;;;;;14.17;9.40;;;-0.20;99.90;;;;;;5023308;28;20215;-68
2022/12/10 07:48:44;;;;;;;12.23;8.87;;;-0.20;99.90;;;;;;5021411;28;20214;-69
2022/12/10 07:51:10;;;;;;;14.80;9.07;;;-0.20;99.90;;;;;;5028029;28;20220;-69
2022/12/10 07:53:36;;;;;;;13.53;9.33;;;-0.20;99.90;;;;;;5027228;28;20177;-69
2022/12/10 07:56:02;;;;;;;13.53;9.60;;;-0.20;99.90;;;;;;5047150;28;20295;-69
2022/12/10 07:58:28;;;;;;;15.30;9.50;;;-0.20;99.90;;;;;;5028780;28;20326;-69
2022/12/10 08:00:54;;;;;;;12.83;8.13;;;-0.10;99.90;;;;;;5025828;28;20746;-69
2022/12/10 08:03:19;;;;;;;16.80;10.33;;;-0.10;99.90;;;;;;5028407;28;20188;-69
2022/12/10 08:05:45;;;;;;;15.03;8.87;;;-0.10;99.90;;;;;;5032950;28;20198;-69
2022/12/10 08:08:11;;;;;;;12.50;8.70;;;-0.10;99.90;;;;;;5024554;28;20224;-69
2022/12/10 08:10:38;;;;;;;15.53;9.13;;;-0.10;99.90;;;;;;5029866;28;20222;-69
2022/12/10 08:13:04;;;;;;;13.93;9.43;;;-0.10;99.90;;;;;;5027322;28;20206;-69
2022/12/10 08:15:30;;;;;;;16.60;10.13;;;-0.10;99.90;;;;;;5023049;28;20216;-69
2022/12/10 08:17:56;;;;;;;13.70;8.40;;;-0.10;99.90;;;;;;5030142;28;20908;-68
2022/12/10 08:20:23;;;;;;;14.13;9.63;;;-0.10;99.90;;;;;;5021930;28;20220;-70
2022/12/10 08:22:49;;;;;;;13.30;9.07;;;-0.20;99.90;;;;;;5028332;28;20216;-72
2022/12/10 08:25:15;;;;;;;13.23;9.03;;;-0.10;99.90;;;;;;5030502;28;20206;-70
2022/12/10 08:27:41;;;;;;;14.20;9.80;;;-0.10;99.90;;;;;;5026526;28;20212;-71
2022/12/10 08:30:07;;;;;;;16.73;9.50;;;-0.10;99.90;;;;;;5025897;28;20204;-71
2022/12/10 08:32:33;;;;;;;13.83;9.60;;;-0.10;99.90;;;;;;5032084;28;20307;-69
2022/12/10 08:34:58;;;;;;;14.83;9.53;;;0.00;99.90;;;;;;5025541;28;20295;-69
2022/12/10 08:37:24;;;;;;;14.83;9.70;;;-0.10;99.90;;;;;;5028489;28;20222;-68
2022/12/10 08:39:50;;;;;;;14.47;10.50;;;0.00;99.90;;;;;;5047128;28;20596;-70
2022/12/10 08:42:15;;;;;;;13.33;9.43;;;0.00;99.90;;;;;;5023170;28;20181;-69
2022/12/10 08:44:41;;;;;;;12.53;8.50;;;-0.10;99.90;;;;;;5048219;28;20226;-69
2022/12/10 08:47:06;;;;;;;14.00;9.53;;;0.00;99.90;;;;;;5045530;28;20859;-69
2022/12/10 08:49:32;;;;;;;15.60;9.50;;;0.10;99.90;;;;;;5029325;28;20216;-69
2022/12/10 08:51:58;;;;;;;15.07;9.30;;;0.10;99.90;;;;;;5029667;28;20215;-69
2022/12/10 08:54:23;;;;;;;13.17;8.87;;;0.10;99.90;;;;;;5026280;28;20184;-69
2022/12/10 08:56:49;;;;;;;13.87;9.73;;;0.00;99.90;;;;;;5028492;28;20200;-68
2022/12/10 08:59:15;;;;;;;16.93;10.87;;;0.10;99.90;;;;;;5030283;28;20233;-69
2022/12/10 09:01:40;;;;;;;14.07;9.57;;;0.10;99.90;;;;;;5026539;28;20218;-69
2022/12/10 09:04:06;;;;;;;14.57;10.23;;;0.10;99.90;;;;;;5044470;28;20694;-69
2022/12/10 09:06:31;;;;;;;15.10;9.73;;;0.20;99.90;;;;;;5030435;28;20241;-69
2022/12/10 09:08:57;;;;;;;14.63;9.70;;;0.20;99.90;;;;;;5022294;28;20824;-70
2022/12/10 09:11:32;;;;;;;13.43;9.00;;;0.30;99.90;;;;;;5028931;28;20229;-69
2022/12/10 09:13:58;;;;;;;14.60;9.47;;;0.20;99.90;;;;;;5024467;28;20303;-69
2022/12/10 09:16:33;;;;;;;13.17;9.57;;;0.30;99.90;;;;;;5025367;28;20707;-70
2022/12/10 09:18:59;;;;;;;15.30;9.63;;;0.20;99.90;;;;;;5029334;28;20218;-69
2022/12/10 09:21:25;;;;;;;16.33;10.00;;;0.30;99.90;;;;;;5025617;28;20213;-68
2022/12/10 09:23:51;;;;;;;14.20;10.00;;;0.30;99.90;;;;;;5030823;28;20594;-70
2022/12/10 09:26:18;;;;;;;16.20;10.50;;;0.30;99.90;;;;;;5028475;28;20590;-70
2022/12/10 09:28:45;;;;;;;13.90;9.53;;;0.30;99.90;;;;;;5025607;28;20280;-70
2022/12/10 09:31:12;;;;;;;14.67;9.90;;;0.30;99.90;;;;;;5025771;28;20218;-69
2022/12/10 09:33:38;;;;;;;15.23;9.83;;;0.10;99.90;;;;;;5027256;28;20217;-69
2022/12/10 09:36:06;;;;;;;14.23;8.97;;;0.20;99.90;;;;;;5027068;28;20219;-70
2022/12/10 09:38:34;;;;;;;16.43;10.27;;;0.20;99.90;;;;;;5028910;28;20287;-70
2022/12/10 09:41:03;;;;;;;14.90;9.93;;;0.10;99.90;;;;;;5025554;28;20701;-69
2022/12/10 09:43:58;;;;;;;13.97;9.83;;;0.30;99.90;;;;;;5025379;28;20700;-69
2022/12/10 09:46:54;;;;;;;13.73;9.53;;;0.30;99.90;;;;;;5008057;28;20204;-68
2022/12/10 09:49:44;;;;;;;15.50;10.83;;;0.20;99.90;;;;;;5025248;28;20240;-69
2022/12/10 09:52:15;;;;;;;15.77;10.33;;;0.30;99.90;;;;;;5026182;28;20212;-69
2022/12/10 09:54:57;;;;;;;15.47;9.70;;;0.40;99.90;;;;;;5027706;28;20216;-69
2022/12/10 09:57:39;;;;;;;14.50;9.70;;;0.40;99.90;;;;;;5025032;28;20236;-69
2022/12/10 10:00:29;;;;;;;14.40;9.83;;;0.40;99.90;;;;;;5018735;28;20373;-68
2022/12/10 10:02:59;;;;;;;14.40;9.97;;;0.40;99.90;;;;;;5017978;28;20231;-69
2022/12/10 10:05:49;;;;;;;13.90;10.10;;;0.40;99.90;;;;;;5050739;28;20237;-71
2022/12/10 10:08:32;;;;;;;14.33;10.00;;;0.40;99.90;;;;;;5050956;28;20294;-69
2022/12/10 10:10:59;;;;;;;14.80;10.07;;;0.40;99.90;;;;;;5055069;28;20540;-71
2022/12/10 10:13:35;;;;;;;12.87;9.83;;;0.50;99.90;;;;;;5050969;28;20217;-71
2022/12/10 10:16:25;;;;;;;13.63;8.80;;;0.50;99.90;;;;;;5058250;28;20228;-71
2022/12/10 10:19:12;;;;;;;14.33;9.47;;;0.50;99.90;;;;;;5047757;28;20299;-71
2022/12/10 10:21:44;;;;;;;16.63;10.17;;;0.50;99.90;;;;;;5051823;28;20226;-71
2022/12/10 10:24:16;;;;;;;16.67;10.67;;;0.50;99.90;;;;;;5053220;28;20190;-71
2022/12/10 10:26:42;;;;;;;14.33;9.30;;;0.50;99.90;;;;;;5052665;28;20194;-70
2022/12/10 10:29:12;;;;;;;16.20;10.57;;;0.50;99.90;;;;;;5059373;28;20214;-69
2022/12/10 10:31:40;;;;;;;14.37;9.67;;;0.40;99.90;;;;;;5050093;28;20210;-70
2022/12/10 10:34:22;;;;;;;14.20;9.90;;;0.30;99.90;;;;;;5053179;28;20247;-70
2022/12/10 10:36:56;;;;;;;15.43;9.30;;;0.40;99.90;;;;;;5046613;28;20246;-71
2022/12/10 10:39:27;;;;;;;15.63;10.00;;;0.40;99.90;;;;;;5046046;28;20270;-70
2022/12/10 10:41:54;;;;;;;13.33;9.33;;;0.40;99.90;;;;;;5043263;28;20285;-70
2022/12/10 10:44:25;;;;;;;14.73;9.77;;;0.30;99.90;;;;;;5046161;28;20642;-69
2022/12/10 10:46:53;;;;;;;15.20;9.80;;;0.40;99.90;;;;;;5048226;28;20214;-71
2022/12/10 10:49:22;;;;;;;14.33;10.03;;;0.40;99.90;;;;;;5038515;28;20291;-70
2022/12/10 10:51:48;;;;;;;14.60;8.77;;;0.50;99.90;;;;;;5046451;28;20210;-70
2022/12/10 10:54:32;;;;;;;14.03;9.30;;;0.60;99.90;;;;;;5045444;28;20179;-70
2022/12/10 10:57:02;;;;;;;11.90;8.70;;;0.60;99.90;;;;;;5046309;28;20207;-70
2022/12/10 10:59:36;;;;;;;14.10;9.60;;;0.60;99.90;;;;;;5047293;28;20249;-70
2022/12/10 11:02:49;;;;;;;14.87;9.50;;;0.50;99.90;;;;;;5044460;28;20215;-70
2022/12/10 11:05:25;;;;;;;16.30;9.60;;;0.50;99.90;;;;;;4999924;28;20757;-70
2022/12/10 11:08:15;;;;;;;17.13;9.50;;;0.50;99.90;;;;;;5048730;28;20696;-70
2022/12/10 11:10:50;;;;;;;14.83;9.53;;;0.40;99.90;;;;;;5043677;28;20288;-70
2022/12/10 11:13:25;;;;;;;14.77;9.73;;;0.40;99.90;;;;;;5047463;28;20260;-70
2022/12/10 11:16:10;;;;;;;14.00;9.27;;;0.40;99.90;;;;;;5042727;28;20635;-70
2022/12/10 11:18:38;;;;;;;14.43;9.83;;;0.50;99.90;;;;;;5047961;28;20721;-70
2022/12/10 11:21:13;;;;;;;16.07;10.80;;;0.60;99.90;;;;;;5046268;28;20221;-70
2022/12/10 11:23:46;;;;;;;14.43;9.20;;;0.60;99.90;;;;;;5043451;28;20234;-70
2022/12/10 11:26:37;;;;;;;15.63;10.20;;;0.70;99.90;;;;;;5048189;28;20291;-68
2022/12/10 11:29:11;;;;;;;15.30;10.87;;;0.70;99.90;;;;;;5046211;28;20207;-69
2022/12/10 11:31:52;;;;;;;16.40;10.53;;;0.60;99.90;;;;;;5048785;28;20285;-70
2022/12/10 11:34:47;;;;;;;15.57;10.40;;;0.70;99.90;;;;;;5050974;28;20260;-70
2022/12/10 11:37:18;;;;;;;16.00;10.77;;;0.70;99.90;;;;;;5046955;28;20706;-70
2022/12/10 11:40:25;;;;;;;14.67;10.10;;;0.80;99.90;;;;;;5049783;28;20233;-70
2022/12/10 11:43:24;;;;;;;15.20;9.77;;;0.90;99.90;;;;;;5040785;28;20237;-70
2022/12/10 11:45:53;;;;;;;14.20;9.43;;;0.90;99.90;;;;;;5047664;28;20229;-70
2022/12/10 11:48:40;;;;;;;16.07;10.33;;;0.80;99.90;;;;;;5048319;28;20570;-70
2022/12/10 11:51:15;;;;;;;21.77;15.10;;;0.80;99.90;;;;;;5044304;28;20716;-70
2022/12/10 11:54:05;;;;;;;17.47;10.07;;;0.80;99.90;;;;;;5048719;28;20230;-70
2022/12/10 11:56:35;;;;;;;13.77;10.10;;;0.80;99.90;;;;;;5044444;28;20252;-70
2022/12/10 11:59:22;;;;;;;16.90;10.90;;;0.80;99.90;;;;;;5050539;28;20257;-70
2022/12/10 12:01:57;;;;;;;16.90;10.87;;;0.80;99.90;;;;;;5051079;28;20219;-71
2022/12/10 12:04:28;;;;;;;14.73;10.67;;;0.70;99.90;;;;;;5045270;28;20745;-70
2022/12/10 12:07:15;;;;;;;17.57;10.53;;;0.70;99.90;;;;;;5049592;28;20603;-69
2022/12/10 12:09:53;;;;;;;16.50;11.27;;;0.60;99.90;;;;;;5047676;28;20222;-69
2022/12/10 12:12:19;;;;;;;18.17;12.07;;;0.60;99.90;;;;;;5046803;28;20175;-69
2022/12/10 12:15:01;;;;;;;18.03;12.20;;;0.70;99.90;;;;;;5052444;28;20230;-71
2022/12/10 12:17:39;;;;;;;19.67;11.63;;;0.60;99.90;;;;;;5044643;28;20212;-71
2022/12/10 12:20:19;;;;;;;16.97;10.93;;;0.60;99.90;;;;;;5047482;28;20214;-69
2022/12/10 12:22:50;;;;;;;16.97;11.43;;;0.70;99.90;;;;;;5049225;28;20199;-71
2022/12/10 12:25:38;;;;;;;16.37;10.23;;;0.60;99.90;;;;;;5045291;28;20207;-70
2022/12/10 12:28:53;;;;;;;18.00;10.87;;;0.60;99.90;;;;;;5049267;28;20208;-71
2022/12/10 12:31:24;;;;;;;16.43;10.77;;;0.50;99.90;;;;;;5006322;28;20321;-69
2022/12/10 12:34:15;;;;;;;18.70;11.13;;;0.60;99.90;;;;;;5051367;28;20219;-70
2022/12/10 12:36:41;;;;;;;14.53;10.23;;;0.60;99.90;;;;;;5044337;28;20250;-69
2022/12/10 12:39:28;;;;;;;17.20;11.03;;;0.60;99.90;;;;;;5045969;28;20198;-70
2022/12/10 12:42:13;;;;;;;15.67;10.23;;;0.60;99.90;;;;;;5050845;28;20224;-71
2022/12/10 12:44:53;;;;;;;17.13;11.67;;;0.60;99.90;;;;;;5045973;28;20207;-71
2022/12/10 12:47:26;;;;;;;14.17;10.30;;;0.50;99.90;;;;;;5049228;28;20234;-72
2022/12/10 12:49:52;;;;;;;16.90;10.73;;;0.50;99.90;;;;;;5047606;28;20626;-71
2022/12/10 12:52:18;;;;;;;19.13;12.33;;;0.50;99.90;;;;;;5048017;28;20210;-71
2022/12/10 12:54:44;;;;;;;16.70;11.07;;;0.50;99.90;;;;;;5050858;28;20261;-71
2022/12/10 12:57:38;;;;;;;17.13;11.00;;;0.50;99.90;;;;;;5045832;28;20269;-71
2022/12/10 13:00:11;;;;;;;16.30;11.00;;;0.40;99.90;;;;;;5046086;28;20184;-70